Main page
METAR-TAF:

METAR-TAF

Airports :

Bournemouth Airport

Bournemouth, England

latitude: 50-47N, longitude: 001-50W, elevation: 11 m

Current weather observation

The report was made 1 hour and 31 minutes ago, at 19:50 UTC
Wind 3 kt from the North
Temperature 5°C
Humidity 81%
Pressure 1037 hPa
Visibility 10 km or more
Broken clouds at a height of 1700 ft

METAR: EGHH 221950Z 01003KT 9999 BKN017 05/02 Q1037

Time: 21:21 (21:21 UTC)

Forecast

The report was made 4 hours and 28 minutes ago, at 16:53 UTC
Forecast valid from 22 at 18 UTC to 23 at 03 UTC
Wind 4 kt from the North
Visibility 10 km or more
Broken clouds at a height of 2000 ft
Probability 30% :
Temporary
from 22 at 21 UTC to 22 at 22 UTC
Visibility: 8000 m

TAF: EGHH 221653Z 2218/2303 36004KT 9999 BKN020 PROB30 TEMPO 2221/2222 8000

Weather observations and forecasts of more than 4000 airports (METAR and TAF reports).

The available stations are represented by yellow and red dots on the map.

Hover mouse over dot to see the name of the station.

Then click to see weather observations and forecasts.

To change the map : click on the green buttons with a black cross to zoom in, on the green button with a dash to zoom out, or on the green arrows for adjacent maps.


METAR-TAF: